Main page
METAR-TAF:

METAR-TAF

Airports :

Atar International Airport

Atar, Mauritania

latitude: 20-30-24N, longitude: 013-02-35W, elevation: 231 m

Current weather observation

The report was made 12 hours and 0 minutes ago, at 18:00 UTC
Wind 6 kt from the Northwest
Temperature 38°C
Humidity 20%
Pressure 1013 hPa
Visibility: 8000 m

METAR: GQPA 251800Z 32006KT 8000 NSC 38/11 Q1013

Time: 06:00 (06:00 UTC)


TAF: missing

Weather observations and forecasts of more than 4000 airports (METAR and TAF reports).

The available stations are represented by yellow and red dots on the map.

Hover mouse over dot to see the name of the station.

Then click to see weather observations and forecasts.

To change the map : click on the green buttons with a black cross to zoom in, on the green button with a dash to zoom out, or on the green arrows for adjacent maps.


METAR-TAF: